sensor_id;sensor_type;location;lat;lon;timestamp;temperature;humidity
12291;DHT22;6208;48.956;9.076;2023-04-21T14:37:34;21.20;85.50
12291;DHT22;6208;48.956;9.076;2023-04-21T14:40:18;21.50;83.00
12291;DHT22;6208;48.956;9.076;2023-04-21T14:43:02;22.20;84.90
12291;DHT22;6208;48.956;9.076;2023-04-21T14:45:47;21.60;79.90
12291;DHT22;6208;48.956;9.076;2023-04-21T14:48:31;21.70;78.70
12291;DHT22;6208;48.956;9.076;2023-04-21T14:51:16;21.90;79.80
12291;DHT22;6208;48.956;9.076;2023-04-21T14:54:01;22.00;74.50
12291;DHT22;6208;48.956;9.076;2023-04-21T14:56:45;22.30;77.10
12291;DHT22;6208;48.956;9.076;2023-04-21T14:59:29;22.50;79.40
12291;DHT22;6208;48.956;9.076;2023-04-21T15:02:13;22.50;77.60
12291;DHT22;6208;48.956;9.076;2023-04-21T15:04:58;22.60;74.10
12291;DHT22;6208;48.956;9.076;2023-04-21T15:07:42;22.80;75.40
12291;DHT22;6208;48.956;9.076;2023-04-21T15:10:26;22.70;91.30
12291;DHT22;6208;48.956;9.076;2023-04-21T15:13:13;22.80;73.50
12291;DHT22;6208;48.956;9.076;2023-04-21T15:15:57;22.50;69.00
12291;DHT22;6208;48.956;9.076;2023-04-21T15:18:41;22.60;73.40
12291;DHT22;6208;48.956;9.076;2023-04-21T15:21:25;22.70;72.60
12291;DHT22;6208;48.956;9.076;2023-04-21T15:24:10;22.70;73.50
12291;DHT22;6208;48.956;9.076;2023-04-21T15:26:54;22.60;73.70
12291;DHT22;6208;48.956;9.076;2023-04-21T15:29:39;22.70;75.50
12291;DHT22;6208;48.956;9.076;2023-04-21T15:32:23;23.00;78.60
12291;DHT22;6208;48.956;9.076;2023-04-21T15:35:08;23.00;69.40
12291;DHT22;6208;48.956;9.076;2023-04-21T15:37:52;23.00;74.40
12291;DHT22;6208;48.956;9.076;2023-04-21T15:40:36;23.20;67.60
12291;DHT22;6208;48.956;9.076;2023-04-21T15:43:20;23.10;67.90
12291;DHT22;6208;48.956;9.076;2023-04-21T15:46:05;22.80;66.60
12291;DHT22;6208;48.956;9.076;2023-04-21T15:48:56;22.30;71.10
12291;DHT22;6208;48.956;9.076;2023-04-21T15:51:42;22.20;71.40
12291;DHT22;6208;48.956;9.076;2023-04-21T15:54:26;21.80;71.00
12291;DHT22;6208;48.956;9.076;2023-04-21T15:57:10;21.70;71.40
12291;DHT22;6208;48.956;9.076;2023-04-21T15:59:54;21.50;73.60
12291;DHT22;6208;48.956;9.076;2023-04-21T16:02:39;21.20;75.50
12291;DHT22;6208;48.956;9.076;2023-04-21T16:05:23;21.10;77.90
12291;DHT22;6208;48.956;9.076;2023-04-21T16:08:07;20.90;79.10
12291;DHT22;6208;48.956;9.076;2023-04-21T16:10:51;20.70;77.40
12291;DHT22;6208;48.956;9.076;2023-04-21T16:13:35;20.60;74.80
12291;DHT22;6208;48.956;9.076;2023-04-21T16:16:19;20.60;77.40
12291;DHT22;6208;48.956;9.076;2023-04-21T16:19:04;20.30;78.40
12291;DHT22;6208;48.956;9.076;2023-04-21T16:21:48;20.30;81.80
12291;DHT22;6208;48.956;9.076;2023-04-21T16:24:33;20.30;86.30
12291;DHT22;6208;48.956;9.076;2023-04-21T16:27:18;20.20;87.80
12291;DHT22;6208;48.956;9.076;2023-04-21T16:30:02;20.20;89.00
12291;DHT22;6208;48.956;9.076;2023-04-21T16:32:47;20.20;83.00
12291;DHT22;6208;48.956;9.076;2023-04-21T16:35:31;20.10;81.20
12291;DHT22;6208;48.956;9.076;2023-04-21T16:38:15;20.00;82.90
12291;DHT22;6208;48.956;9.076;2023-04-21T16:40:59;19.90;84.90
12291;DHT22;6208;48.956;9.076;2023-04-21T16:43:43;19.80;84.30
12291;DHT22;6208;48.956;9.076;2023-04-21T16:46:27;19.70;82.70
12291;DHT22;6208;48.956;9.076;2023-04-21T16:49:12;19.70;82.20
12291;DHT22;6208;48.956;9.076;2023-04-21T16:51:56;19.50;83.30
12291;DHT22;6208;48.956;9.076;2023-04-21T16:54:41;19.40;86.20
12291;DHT22;6208;48.956;9.076;2023-04-21T16:57:26;19.20;86.50
12291;DHT22;6208;48.956;9.076;2023-04-21T17:00:12;19.20;87.20
12291;DHT22;6208;48.956;9.076;2023-04-21T17:02:56;19.00;89.00
12291;DHT22;6208;48.956;9.076;2023-04-21T17:05:40;18.90;90.10
12291;DHT22;6208;48.956;9.076;2023-04-21T17:08:24;18.70;89.50
12291;DHT22;6208;48.956;9.076;2023-04-21T17:11:09;18.70;89.30
12291;DHT22;6208;48.956;9.076;2023-04-21T17:13:53;18.50;89.70
12291;DHT22;6208;48.956;9.076;2023-04-21T17:19:22;18.30;90.60
12291;DHT22;6208;48.956;9.076;2023-04-21T17:22:08;18.50;91.50
12291;DHT22;6208;48.956;9.076;2023-04-21T17:24:52;18.00;91.40
12291;DHT22;6208;48.956;9.076;2023-04-21T17:27:37;18.00;91.80
12291;DHT22;6208;48.956;9.076;2023-04-21T17:30:22;18.00;92.10
12291;DHT22;6208;48.956;9.076;2023-04-21T17:33:06;17.80;92.10
12291;DHT22;6208;48.956;9.076;2023-04-21T17:35:51;17.90;92.10
12291;DHT22;6208;48.956;9.076;2023-04-21T17:38:35;17.90;92.20
12291;DHT22;6208;48.956;9.076;2023-04-21T17:41:19;17.90;92.60
12291;DHT22;6208;48.956;9.076;2023-04-21T17:44:04;17.90;92.60
12291;DHT22;6208;48.956;9.076;2023-04-21T17:46:48;17.80;93.50
12291;DHT22;6208;48.956;9.076;2023-04-21T17:49:34;17.70;95.30
12291;DHT22;6208;48.956;9.076;2023-04-21T17:52:18;17.20;99.90
12291;DHT22;6208;48.956;9.076;2023-04-21T17:55:02;16.60;99.90
12291;DHT22;6208;48.956;9.076;2023-04-21T17:57:47;16.10;99.90
12291;DHT22;6208;48.956;9.076;2023-04-21T18:00:31;15.80;99.90
12291;DHT22;6208;48.956;9.076;2023-04-21T18:03:17;15.60;99.90
12291;DHT22;6208;48.956;9.076;2023-04-21T18:06:01;15.70;99.90
12291;DHT22;6208;48.956;9.076;2023-04-21T18:08:48;15.40;99.90
12291;DHT22;6208;48.956;9.076;2023-04-21T18:11:32;15.60;99.90
12291;DHT22;6208;48.956;9.076;2023-04-21T18:14:16;15.40;99.90
12291;DHT22;6208;48.956;9.076;2023-04-21T18:19:45;14.90;99.90
12291;DHT22;6208;48.956;9.076;2023-04-21T18:22:30;15.10;99.90
12291;DHT22;6208;48.956;9.076;2023-04-21T18:25:17;15.20;99.90
12291;DHT22;6208;48.956;9.076;2023-04-21T18:28:01;15.30;99.90
12291;DHT22;6208;48.956;9.076;2023-04-21T18:30:48;15.00;99.90
12291;DHT22;6208;48.956;9.076;2023-04-21T18:33:32;15.10;99.90
12291;DHT22;6208;48.956;9.076;2023-04-21T18:36:17;15.20;99.90
12291;DHT22;6208;48.956;9.076;2023-04-21T18:39:01;15.20;99.90
12291;DHT22;6208;48.956;9.076;2023-04-21T18:41:45;14.90;99.90
12291;DHT22;6208;48.956;9.076;2023-04-21T18:44:31;14.80;99.90
12291;DHT22;6208;48.956;9.076;2023-04-21T18:47:16;14.80;99.90
12291;DHT22;6208;48.956;9.076;2023-04-21T18:50:00;14.60;99.90
12291;DHT22;6208;48.956;9.076;2023-04-21T18:52:45;14.60;99.90
12291;DHT22;6208;48.956;9.076;2023-04-21T18:55:29;14.40;99.90
12291;DHT22;6208;48.956;9.076;2023-04-21T18:58:16;15.20;99.90
12291;DHT22;6208;48.956;9.076;2023-04-21T19:01:01;14.70;99.90
12291;DHT22;6208;48.956;9.076;2023-04-21T19:03:45;14.90;99.90
12291;DHT22;6208;48.956;9.076;2023-04-21T19:06:30;14.40;99.90
12291;DHT22;6208;48.956;9.076;2023-04-21T19:09:15;14.50;99.90
12291;DHT22;6208;48.956;9.076;2023-04-21T19:12:00;14.80;99.90
12291;DHT22;6208;48.956;9.076;2023-04-21T19:14:44;14.40;99.90
12291;DHT22;6208;48.956;9.076;2023-04-21T19:17:29;14.40;99.90
12291;DHT22;6208;48.956;9.076;2023-04-21T19:20:13;14.30;99.90
12291;DHT22;6208;48.956;9.076;2023-04-21T19:22:57;14.30;99.90
12291;DHT22;6208;48.956;9.076;2023-04-21T19:25:41;14.90;99.90
12291;DHT22;6208;48.956;9.076;2023-04-21T19:28:26;14.40;99.90
12291;DHT22;6208;48.956;9.076;2023-04-21T19:31:10;14.00;99.90
12291;DHT22;6208;48.956;9.076;2023-04-21T19:33:55;14.00;99.90
12291;DHT22;6208;48.956;9.076;2023-04-21T19:36:39;14.10;99.90
12291;DHT22;6208;48.956;9.076;2023-04-21T19:39:25;13.90;99.90
12291;DHT22;6208;48.956;9.076;2023-04-21T19:42:09;13.80;99.90
12291;DHT22;6208;48.956;9.076;2023-04-21T19:44:53;14.00;99.90
12291;DHT22;6208;48.956;9.076;2023-04-21T19:47:37;13.90;99.90
12291;DHT22;6208;48.956;9.076;2023-04-21T19:50:22;13.80;99.90
12291;DHT22;6208;48.956;9.076;2023-04-21T19:53:06;13.70;99.90
12291;DHT22;6208;48.956;9.076;2023-04-21T19:55:50;13.70;99.90
12291;DHT22;6208;48.956;9.076;2023-04-21T19:58:35;13.50;99.90
12291;DHT22;6208;48.956;9.076;2023-04-21T20:01:20;13.40;99.90
12291;DHT22;6208;48.956;9.076;2023-04-21T20:04:05;13.40;99.90
12291;DHT22;6208;48.956;9.076;2023-04-21T20:06:49;13.40;99.90
12291;DHT22;6208;48.956;9.076;2023-04-21T20:09:33;13.30;99.90
12291;DHT22;6208;48.956;9.076;2023-04-21T20:12:17;13.20;99.90
12291;DHT22;6208;48.956;9.076;2023-04-21T20:15:02;13.30;99.90
12291;DHT22;6208;48.956;9.076;2023-04-21T20:17:46;13.40;99.90
12291;DHT22;6208;48.956;9.076;2023-04-21T20:20:32;13.20;99.90
12291;DHT22;6208;48.956;9.076;2023-04-21T20:23:17;13.30;99.90
12291;DHT22;6208;48.956;9.076;2023-04-21T20:26:02;13.30;99.90
12291;DHT22;6208;48.956;9.076;2023-04-21T20:28:46;13.30;99.90
12291;DHT22;6208;48.956;9.076;2023-04-21T20:31:31;13.40;99.90
12291;DHT22;6208;48.956;9.076;2023-04-21T20:34:16;13.40;99.90
12291;DHT22;6208;48.956;9.076;2023-04-21T20:37:00;13.30;99.90
12291;DHT22;6208;48.956;9.076;2023-04-21T20:39:44;13.70;99.90
12291;DHT22;6208;48.956;9.076;2023-04-21T20:42:30;13.60;99.90
12291;DHT22;6208;48.956;9.076;2023-04-21T20:45:14;13.30;99.90
12291;DHT22;6208;48.956;9.076;2023-04-21T20:48:00;13.30;99.90
12291;DHT22;6208;48.956;9.076;2023-04-21T20:50:45;12.90;99.90
12291;DHT22;6208;48.956;9.076;2023-04-21T20:53:29;12.80;99.90
12291;DHT22;6208;48.956;9.076;2023-04-21T20:56:13;12.80;99.90
12291;DHT22;6208;48.956;9.076;2023-04-21T20:59:01;13.00;99.90
12291;DHT22;6208;48.956;9.076;2023-04-21T21:07:04;12.60;99.90
12291;DHT22;6208;48.956;9.076;2023-04-21T21:09:49;12.70;99.90
12291;DHT22;6208;48.956;9.076;2023-04-21T21:12:33;12.60;99.90
12291;DHT22;6208;48.956;9.076;2023-04-21T21:18:03;12.60;99.90
12291;DHT22;6208;48.956;9.076;2023-04-21T21:20:47;12.80;99.90
12291;DHT22;6208;48.956;9.076;2023-04-21T21:23:31;12.50;99.90
12291;DHT22;6208;48.956;9.076;2023-04-21T21:26:16;12.30;99.90
12291;DHT22;6208;48.956;9.076;2023-04-21T21:31:44;12.30;99.90
12291;DHT22;6208;48.956;9.076;2023-04-21T21:34:28;12.20;99.90
12291;DHT22;6208;48.956;9.076;2023-04-21T21:37:13;12.40;99.90
12291;DHT22;6208;48.956;9.076;2023-04-21T21:39:58;12.30;99.90
12291;DHT22;6208;48.956;9.076;2023-04-21T21:42:43;12.40;99.90
12291;DHT22;6208;48.956;9.076;2023-04-21T21:48:12;12.40;99.90
12291;DHT22;6208;48.956;9.076;2023-04-21T21:50:56;12.20;99.90
12291;DHT22;6208;48.956;9.076;2023-04-21T21:53:40;12.10;99.90
12291;DHT22;6208;48.956;9.076;2023-04-21T21:59:09;12.00;99.90
12291;DHT22;6208;48.956;9.076;2023-04-21T22:04:37;12.10;99.90
12291;DHT22;6208;48.956;9.076;2023-04-21T22:10:09;12.30;99.90
12291;DHT22;6208;48.956;9.076;2023-04-21T22:12:53;12.30;99.90
12291;DHT22;6208;48.956;9.076;2023-04-21T22:15:37;12.60;99.90
12291;DHT22;6208;48.956;9.076;2023-04-21T22:29:20;12.50;99.90
12291;DHT22;6208;48.956;9.076;2023-04-21T22:32:04;12.50;99.90
12291;DHT22;6208;48.956;9.076;2023-04-21T22:37:36;12.50;99.90
12291;DHT22;6208;48.956;9.076;2023-04-21T22:40:20;12.40;99.90
12291;DHT22;6208;48.956;9.076;2023-04-21T22:54:04;12.40;99.90
12291;DHT22;6208;48.956;9.076;2023-04-21T22:56:48;12.30;99.90
12291;DHT22;6208;48.956;9.076;2023-04-21T22:59:33;12.30;99.90
12291;DHT22;6208;48.956;9.076;2023-04-21T23:02:17;12.10;99.90
12291;DHT22;6208;48.956;9.076;2023-04-21T23:05:02;12.20;99.90
12291;DHT22;6208;48.956;9.076;2023-04-21T23:07:49;12.10;99.90
12291;DHT22;6208;48.956;9.076;2023-04-21T23:10:34;12.40;99.90
12291;DHT22;6208;48.956;9.076;2023-04-21T23:13:18;12.00;99.90
12291;DHT22;6208;48.956;9.076;2023-04-21T23:16:02;12.30;99.90
12291;DHT22;6208;48.956;9.076;2023-04-21T23:18:46;12.30;99.90
12291;DHT22;6208;48.956;9.076;2023-04-21T23:21:30;12.10;99.90
12291;DHT22;6208;48.956;9.076;2023-04-21T23:24:15;12.10;99.90
12291;DHT22;6208;48.956;9.076;2023-04-21T23:26:59;12.20;99.90
12291;DHT22;6208;48.956;9.076;2023-04-21T23:29:44;12.10;99.90
12291;DHT22;6208;48.956;9.076;2023-04-21T23:35:13;12.30;99.90
12291;DHT22;6208;48.956;9.076;2023-04-21T23:37:57;12.40;99.90
12291;DHT22;6208;48.956;9.076;2023-04-21T23:40:41;12.60;99.90
12291;DHT22;6208;48.956;9.076;2023-04-21T23:43:25;12.60;99.90
12291;DHT22;6208;48.956;9.076;2023-04-21T23:46:09;12.50;99.90
12291;DHT22;6208;48.956;9.076;2023-04-21T23:51:38;12.30;99.90
12291;DHT22;6208;48.956;9.076;2023-04-21T23:54:22;12.20;99.90
12291;DHT22;6208;48.956;9.076;2023-04-21T23:57:07;12.10;99.90
12291;DHT22;6208;48.956;9.076;2023-04-21T23:59:51;12.00;99.90
